sensor_id;sensor_type;location;lat;lon;timestamp;pressure;altitude;pressure_sealevel;temperature;humidity
36092;BME280;22147;52.388;13.390;2023-03-16T00:00:39;101497.56;;;-3.82;100.00
36092;BME280;22147;52.388;13.390;2023-03-16T00:03:12;101499.66;;;-3.84;100.00
36092;BME280;22147;52.388;13.390;2023-03-16T00:05:50;101509.91;;;-3.86;100.00
36092;BME280;22147;52.388;13.390;2023-03-16T00:08:21;101505.50;;;-3.88;100.00
36092;BME280;22147;52.388;13.390;2023-03-16T00:10:52;101512.19;;;-3.90;100.00
36092;BME280;22147;52.388;13.390;2023-03-16T00:13:24;101510.75;;;-3.93;100.00
36092;BME280;22147;52.388;13.390;2023-03-16T00:15:59;101509.09;;;-3.94;100.00
36092;BME280;22147;52.388;13.390;2023-03-16T00:18:33;101505.75;;;-3.96;100.00
36092;BME280;22147;52.388;13.390;2023-03-16T00:21:07;101507.63;;;-3.96;100.00
36092;BME280;22147;52.388;13.390;2023-03-16T00:23:37;101512.00;;;-3.95;100.00
36092;BME280;22147;52.388;13.390;2023-03-16T00:26:08;101508.25;;;-3.94;100.00
36092;BME280;22147;52.388;13.390;2023-03-16T00:28:39;101507.41;;;-3.95;100.00
36092;BME280;22147;52.388;13.390;2023-03-16T00:31:13;101513.91;;;-3.96;100.00
36092;BME280;22147;52.388;13.390;2023-03-16T00:33:43;101513.47;;;-3.99;100.00
36092;BME280;22147;52.388;13.390;2023-03-16T00:36:13;101524.53;;;-4.01;100.00
36092;BME280;22147;52.388;13.390;2023-03-16T00:38:43;101517.47;;;-4.02;100.00
36092;BME280;22147;52.388;13.390;2023-03-16T00:41:17;101517.66;;;-4.03;100.00
36092;BME280;22147;52.388;13.390;2023-03-16T00:43:47;101524.13;;;-4.04;100.00
36092;BME280;22147;52.388;13.390;2023-03-16T00:46:17;101516.22;;;-4.06;100.00
36092;BME280;22147;52.388;13.390;2023-03-16T00:48:47;101522.47;;;-4.05;100.00
36092;BME280;22147;52.388;13.390;2023-03-16T00:51:18;101527.06;;;-4.06;100.00
36092;BME280;22147;52.388;13.390;2023-03-16T00:53:48;101525.19;;;-4.05;100.00
36092;BME280;22147;52.388;13.390;2023-03-16T00:56:18;101525.38;;;-4.07;100.00
36092;BME280;22147;52.388;13.390;2023-03-16T00:58:49;101522.66;;;-4.07;100.00
36092;BME280;22147;52.388;13.390;2023-03-16T01:01:19;101524.34;;;-4.06;100.00
36092;BME280;22147;52.388;13.390;2023-03-16T01:03:49;101531.63;;;-4.06;100.00
36092;BME280;22147;52.388;13.390;2023-03-16T01:06:19;101532.91;;;-4.09;100.00
36092;BME280;22147;52.388;13.390;2023-03-16T01:08:51;101528.75;;;-4.12;100.00
36092;BME280;22147;52.388;13.390;2023-03-16T01:11:22;101536.06;;;-4.12;100.00
36092;BME280;22147;52.388;13.390;2023-03-16T01:13:52;101536.25;;;-4.14;100.00
36092;BME280;22147;52.388;13.390;2023-03-16T01:16:23;101536.25;;;-4.14;100.00
36092;BME280;22147;52.388;13.390;2023-03-16T01:18:53;101541.47;;;-4.12;100.00
36092;BME280;22147;52.388;13.390;2023-03-16T01:21:24;101535.44;;;-4.14;100.00
36092;BME280;22147;52.388;13.390;2023-03-16T01:23:54;101529.19;;;-4.15;100.00
36092;BME280;22147;52.388;13.390;2023-03-16T01:26:24;101528.94;;;-4.13;100.00
36092;BME280;22147;52.388;13.390;2023-03-16T01:28:54;101528.94;;;-4.13;100.00
36092;BME280;22147;52.388;13.390;2023-03-16T01:31:25;101532.91;;;-4.16;100.00
36092;BME280;22147;52.388;13.390;2023-03-16T01:33:57;101528.75;;;-4.18;100.00
36092;BME280;22147;52.388;13.390;2023-03-16T01:36:27;101523.31;;;-4.18;100.00
36092;BME280;22147;52.388;13.390;2023-03-16T01:38:58;101526.03;;;-4.18;100.00
36092;BME280;22147;52.388;13.390;2023-03-16T01:41:26;101524.97;;;-4.17;100.00
36092;BME280;22147;52.388;13.390;2023-03-16T01:43:54;101525.84;;;-4.17;100.00
36092;BME280;22147;52.388;13.390;2023-03-16T01:46:28;101529.56;;;-4.18;100.00
36092;BME280;22147;52.388;13.390;2023-03-16T01:49:21;101537.28;;;-4.21;100.00
36092;BME280;22147;52.388;13.390;2023-03-16T01:52:07;101535.00;;;-4.24;100.00
36092;BME280;22147;52.388;13.390;2023-03-16T01:54:51;101539.81;;;-4.26;100.00
36092;BME280;22147;52.388;13.390;2023-03-16T01:57:42;101535.66;;;-4.29;100.00
36092;BME280;22147;52.388;13.390;2023-03-16T02:00:18;101528.53;;;-4.30;100.00
36092;BME280;22147;52.388;13.390;2023-03-16T02:02:59;101528.97;;;-4.33;100.00
36092;BME280;22147;52.388;13.390;2023-03-16T02:06:12;101530.22;;;-4.36;100.00
36092;BME280;22147;52.388;13.390;2023-03-16T02:08:49;101517.06;;;-4.39;100.00
36092;BME280;22147;52.388;13.390;2023-03-16T02:11:24;101523.75;;;-4.41;100.00
36092;BME280;22147;52.388;13.390;2023-03-16T02:14:05;101525.84;;;-4.43;100.00
36092;BME280;22147;52.388;13.390;2023-03-16T02:16:38;101516.88;;;-4.44;100.00
36092;BME280;22147;52.388;13.390;2023-03-16T02:19:19;101519.59;;;-4.44;100.00
36092;BME280;22147;52.388;13.390;2023-03-16T02:22:07;101520.00;;;-4.47;100.00
36092;BME280;22147;52.388;13.390;2023-03-16T02:24:39;101511.84;;;-4.47;100.00
36092;BME280;22147;52.388;13.390;2023-03-16T02:27:31;101515.63;;;-4.48;100.00
36092;BME280;22147;52.388;13.390;2023-03-16T02:30:20;101512.50;;;-4.52;100.00
36092;BME280;22147;52.388;13.390;2023-03-16T02:32:53;101517.28;;;-4.54;100.00
36092;BME280;22147;52.388;13.390;2023-03-16T02:35:24;101517.28;;;-4.54;100.00
36092;BME280;22147;52.388;13.390;2023-03-16T02:37:54;101520.19;;;-4.55;100.00
36092;BME280;22147;52.388;13.390;2023-03-16T02:40:30;101520.44;;;-4.57;100.00
36092;BME280;22147;52.388;13.390;2023-03-16T02:43:10;101525.00;;;-4.57;100.00
36092;BME280;22147;52.388;13.390;2023-03-16T02:45:53;101520.00;;;-4.60;100.00
36092;BME280;22147;52.388;13.390;2023-03-16T02:49:33;101523.16;;;-4.63;100.00
36092;BME280;22147;52.388;13.390;2023-03-16T02:52:08;101532.50;;;-4.66;100.00
36092;BME280;22147;52.388;13.390;2023-03-16T02:54:38;101530.03;;;-4.67;100.00
36092;BME280;22147;52.388;13.390;2023-03-16T02:57:08;101533.75;;;-4.68;100.00
36092;BME280;22147;52.388;13.390;2023-03-16T02:59:38;101533.13;;;-4.71;100.00
36092;BME280;22147;52.388;13.390;2023-03-16T03:02:09;101536.66;;;-4.70;100.00
36092;BME280;22147;52.388;13.390;2023-03-16T03:04:40;101539.19;;;-4.68;100.00
36092;BME280;22147;52.388;13.390;2023-03-16T03:07:14;101542.94;;;-4.69;100.00
36092;BME280;22147;52.388;13.390;2023-03-16T03:09:44;101535.00;;;-4.71;100.00
36092;BME280;22147;52.388;13.390;2023-03-16T03:12:15;101535.22;;;-4.73;100.00
36092;BME280;22147;52.388;13.390;2023-03-16T03:14:45;101540.00;;;-4.75;100.00
36092;BME280;22147;52.388;13.390;2023-03-16T03:17:15;101537.53;;;-4.76;100.00
36092;BME280;22147;52.388;13.390;2023-03-16T03:19:45;101553.56;;;-4.75;100.00
36092;BME280;22147;52.388;13.390;2023-03-16T03:22:15;101547.50;;;-4.77;100.00
36092;BME280;22147;52.388;13.390;2023-03-16T03:24:47;101555.00;;;-4.79;100.00
36092;BME280;22147;52.388;13.390;2023-03-16T03:27:18;101552.31;;;-4.79;100.00
36092;BME280;22147;52.388;13.390;2023-03-16T03:29:51;101557.09;;;-4.81;100.00
36092;BME280;22147;52.388;13.390;2023-03-16T03:32:21;101555.63;;;-4.83;100.00
36092;BME280;22147;52.388;13.390;2023-03-16T03:34:51;101555.84;;;-4.85;100.00
36092;BME280;22147;52.388;13.390;2023-03-16T03:37:21;101558.97;;;-4.88;100.00
36092;BME280;22147;52.388;13.390;2023-03-16T03:39:53;101550.19;;;-4.90;100.00
36092;BME280;22147;52.388;13.390;2023-03-16T03:42:23;101557.69;;;-4.92;100.00
36092;BME280;22147;52.388;13.390;2023-03-16T03:44:53;101554.38;;;-4.94;100.00
36092;BME280;22147;52.388;13.390;2023-03-16T03:47:23;101557.06;;;-4.94;100.00
36092;BME280;22147;52.388;13.390;2023-03-16T03:49:53;101555.41;;;-4.95;100.00
36092;BME280;22147;52.388;13.390;2023-03-16T03:52:23;101559.16;;;-4.96;100.00
36092;BME280;22147;52.388;13.390;2023-03-16T03:54:52;101554.56;;;-4.96;100.00
36092;BME280;22147;52.388;13.390;2023-03-16T03:57:20;101555.81;;;-4.98;100.00
36092;BME280;22147;52.388;13.390;2023-03-16T03:59:48;101556.00;;;-5.00;100.00
36092;BME280;22147;52.388;13.390;2023-03-16T04:02:17;101557.25;;;-5.02;100.00
36092;BME280;22147;52.388;13.390;2023-03-16T04:04:45;101551.84;;;-5.02;100.00
36092;BME280;22147;52.388;13.390;2023-03-16T04:07:14;101559.13;;;-5.03;100.00
36092;BME280;22147;52.388;13.390;2023-03-16T04:09:42;101558.31;;;-5.03;100.00
36092;BME280;22147;52.388;13.390;2023-03-16T04:12:13;101555.78;;;-5.05;100.00
36092;BME280;22147;52.388;13.390;2023-03-16T04:14:42;101553.28;;;-5.06;100.00
36092;BME280;22147;52.388;13.390;2023-03-16T04:17:10;101549.75;;;-5.07;100.00
36092;BME280;22147;52.388;13.390;2023-03-16T04:19:39;101550.38;;;-5.05;100.00
36092;BME280;22147;52.388;13.390;2023-03-16T04:22:08;101553.28;;;-5.06;100.00
36092;BME280;22147;52.388;13.390;2023-03-16T04:24:36;101553.47;;;-5.08;100.00
36092;BME280;22147;52.388;13.390;2023-03-16T04:27:04;101556.41;;;-5.09;100.00
36092;BME280;22147;52.388;13.390;2023-03-16T04:29:32;101557.44;;;-5.11;100.00
36092;BME280;22147;52.388;13.390;2023-03-16T04:32:01;101560.16;;;-5.11;100.00
36092;BME280;22147;52.388;13.390;2023-03-16T04:34:29;101564.94;;;-5.13;100.00
36092;BME280;22147;52.388;13.390;2023-03-16T04:36:58;101563.47;;;-5.15;100.00
36092;BME280;22147;52.388;13.390;2023-03-16T04:39:26;101567.22;;;-5.16;100.00
36092;BME280;22147;52.388;13.390;2023-03-16T04:41:54;101565.56;;;-5.17;100.00
36092;BME280;22147;52.388;13.390;2023-03-16T04:44:22;101571.38;;;-5.20;100.00
36092;BME280;22147;52.388;13.390;2023-03-16T04:46:54;101571.59;;;-5.22;100.00
36092;BME280;22147;52.388;13.390;2023-03-16T04:49:24;101563.66;;;-5.23;100.00
36092;BME280;22147;52.388;13.390;2023-03-16T04:51:55;101567.41;;;-5.24;100.00
36092;BME280;22147;52.388;13.390;2023-03-16T04:54:26;101573.84;;;-5.25;100.00
36092;BME280;22147;52.388;13.390;2023-03-16T04:56:56;101566.78;;;-5.26;100.00
36092;BME280;22147;52.388;13.390;2023-03-16T04:59:27;101558.84;;;-5.28;100.00
36092;BME280;22147;52.388;13.390;2023-03-16T05:01:57;101575.28;;;-5.29;100.00
36092;BME280;22147;52.388;13.390;2023-03-16T05:04:27;101576.34;;;-5.30;100.00
36092;BME280;22147;52.388;13.390;2023-03-16T05:06:57;101575.50;;;-5.31;100.00
36092;BME280;22147;52.388;13.390;2023-03-16T05:09:27;101581.94;;;-5.32;100.00
36092;BME280;22147;52.388;13.390;2023-03-16T05:11:57;101581.13;;;-5.33;100.00
36092;BME280;22147;52.388;13.390;2023-03-16T05:14:27;101588.41;;;-5.33;100.00
36092;BME280;22147;52.388;13.390;2023-03-16T05:16:57;101578.41;;;-5.33;100.00
36092;BME280;22147;52.388;13.390;2023-03-16T05:19:28;101575.72;;;-5.33;100.00
36092;BME280;22147;52.388;13.390;2023-03-16T05:21:58;101580.50;;;-5.35;100.00
36092;BME280;22147;52.388;13.390;2023-03-16T05:24:27;101586.72;;;-5.34;100.00
36092;BME280;22147;52.388;13.390;2023-03-16T05:26:55;101580.28;;;-5.33;100.00
36092;BME280;22147;52.388;13.390;2023-03-16T05:29:24;101579.66;;;-5.35;100.00
36092;BME280;22147;52.388;13.390;2023-03-16T05:31:52;101579.66;;;-5.35;100.00
36092;BME280;22147;52.388;13.390;2023-03-16T05:34:21;101584.84;;;-5.34;100.00
36092;BME280;22147;52.388;13.390;2023-03-16T05:36:49;101590.72;;;-5.30;100.00
36092;BME280;22147;52.388;13.390;2023-03-16T05:39:18;101584.69;;;-5.25;100.00
36092;BME280;22147;52.388;13.390;2023-03-16T05:41:46;101587.84;;;-5.22;100.00
36092;BME280;22147;52.388;13.390;2023-03-16T05:44:14;101588.28;;;-5.18;100.00
36092;BME280;22147;52.388;13.390;2023-03-16T05:46:43;101590.97;;;-5.18;100.00
36092;BME280;22147;52.388;13.390;2023-03-16T05:49:14;101596.81;;;-5.15;100.00
36092;BME280;22147;52.388;13.390;2023-03-16T05:51:44;101602.47;;;-5.09;100.00
36092;BME280;22147;52.388;13.390;2023-03-16T05:54:14;101595.59;;;-5.05;100.00
36092;BME280;22147;52.388;13.390;2023-03-16T05:56:45;101592.28;;;-5.01;100.00
36092;BME280;22147;52.388;13.390;2023-03-16T05:59:15;101596.06;;;-4.95;100.00
36092;BME280;22147;52.388;13.390;2023-03-16T06:01:46;101605.22;;;-4.89;100.00
36092;BME280;22147;52.388;13.390;2023-03-16T06:04:18;101607.13;;;-4.83;100.00
36092;BME280;22147;52.388;13.390;2023-03-16T06:06:48;101609.84;;;-4.77;100.00
36092;BME280;22147;52.388;13.390;2023-03-16T06:09:18;101610.50;;;-4.68;100.00
36092;BME280;22147;52.388;13.390;2023-03-16T06:11:48;101608.44;;;-4.59;100.00
36092;BME280;22147;52.388;13.390;2023-03-16T06:14:18;101599.91;;;-4.50;100.00
36092;BME280;22147;52.388;13.390;2023-03-16T06:16:48;101607.00;;;-4.42;100.00
36092;BME280;22147;52.388;13.390;2023-03-16T06:19:18;101609.53;;;-4.34;100.00
36092;BME280;22147;52.388;13.390;2023-03-16T06:21:48;101612.84;;;-4.25;100.00
36092;BME280;22147;52.388;13.390;2023-03-16T06:24:18;101611.41;;;-4.14;100.00
36092;BME280;22147;52.388;13.390;2023-03-16T06:26:49;101617.25;;;-4.04;100.00
36092;BME280;22147;52.388;13.390;2023-03-16T06:29:19;101619.53;;;-3.94;100.00
36092;BME280;22147;52.388;13.390;2023-03-16T06:31:50;101614.50;;;-3.84;100.00
36092;BME280;22147;52.388;13.390;2023-03-16T06:34:21;101624.72;;;-3.73;100.00
36092;BME280;22147;52.388;13.390;2023-03-16T06:36:51;101627.81;;;-3.56;100.00
36092;BME280;22147;52.388;13.390;2023-03-16T06:39:22;101623.41;;;-3.43;100.00
36092;BME280;22147;52.388;13.390;2023-03-16T06:41:52;101625.06;;;-3.36;100.00
36092;BME280;22147;52.388;13.390;2023-03-16T06:44:23;101630.25;;;-3.21;100.00
36092;BME280;22147;52.388;13.390;2023-03-16T06:46:53;101635.19;;;-3.04;100.00
36092;BME280;22147;52.388;13.390;2023-03-16T06:49:23;101631.75;;;-2.87;100.00
36092;BME280;22147;52.388;13.390;2023-03-16T06:51:53;101638.50;;;-2.57;100.00
36092;BME280;22147;52.388;13.390;2023-03-16T06:54:23;101639.00;;;-2.35;100.00
36092;BME280;22147;52.388;13.390;2023-03-16T06:56:54;101640.13;;;-2.18;100.00
36092;BME280;22147;52.388;13.390;2023-03-16T06:59:24;101653.13;;;-1.95;100.00
36092;BME280;22147;52.388;13.390;2023-03-16T07:01:54;101649.63;;;-1.77;100.00
36092;BME280;22147;52.388;13.390;2023-03-16T07:04:24;101659.69;;;-1.52;100.00
36092;BME280;22147;52.388;13.390;2023-03-16T07:06:54;101661.81;;;-1.17;100.00
36092;BME280;22147;52.388;13.390;2023-03-16T07:09:24;101663.03;;;-1.13;100.00
36092;BME280;22147;52.388;13.390;2023-03-16T07:11:55;101662.38;;;-0.78;100.00
36092;BME280;22147;52.388;13.390;2023-03-16T07:14:25;101676.78;;;-0.53;100.00
36092;BME280;22147;52.388;13.390;2023-03-16T07:16:55;101675.41;;;-0.32;100.00
36092;BME280;22147;52.388;13.390;2023-03-16T07:19:26;101675.72;;;0.02;100.00
36092;BME280;22147;52.388;13.390;2023-03-16T07:21:56;101673.63;;;0.16;100.00
36092;BME280;22147;52.388;13.390;2023-03-16T07:24:26;101663.91;;;0.32;100.00
36092;BME280;22147;52.388;13.390;2023-03-16T07:26:57;101676.75;;;0.67;100.00
36092;BME280;22147;52.388;13.390;2023-03-16T07:29:27;101675.06;;;0.77;100.00
36092;BME280;22147;52.388;13.390;2023-03-16T07:31:57;101679.56;;;0.95;100.00
36092;BME280;22147;52.388;13.390;2023-03-16T07:34:27;101682.75;;;1.73;100.00
36092;BME280;22147;52.388;13.390;2023-03-16T07:36:58;101682.81;;;2.24;100.00
36092;BME280;22147;52.388;13.390;2023-03-16T07:39:28;101687.38;;;2.52;100.00
36092;BME280;22147;52.388;13.390;2023-03-16T07:41:58;101693.69;;;2.70;100.00
36092;BME280;22147;52.388;13.390;2023-03-16T07:44:28;101692.81;;;2.86;100.00
36092;BME280;22147;52.388;13.390;2023-03-16T07:46:58;101697.34;;;2.97;100.00
36092;BME280;22147;52.388;13.390;2023-03-16T07:49:28;101707.25;;;3.42;100.00
36092;BME280;22147;52.388;13.390;2023-03-16T07:51:58;101700.16;;;3.69;100.00
36092;BME280;22147;52.388;13.390;2023-03-16T07:54:28;101692.75;;;3.96;100.00
36092;BME280;22147;52.388;13.390;2023-03-16T07:56:59;101705.97;;;3.99;100.00
36092;BME280;22147;52.388;13.390;2023-03-16T07:59:29;101702.63;;;3.97;100.00
36092;BME280;22147;52.388;13.390;2023-03-16T08:02:00;101700.53;;;4.04;100.00
36092;BME280;22147;52.388;13.390;2023-03-16T08:04:30;101702.38;;;4.26;100.00
36092;BME280;22147;52.388;13.390;2023-03-16T08:07:00;101697.59;;;3.89;100.00
36092;BME280;22147;52.388;13.390;2023-03-16T08:09:31;101706.16;;;4.20;100.00
36092;BME280;22147;52.388;13.390;2023-03-16T08:12:04;101698.00;;;4.30;100.00
36092;BME280;22147;52.388;13.390;2023-03-16T08:14:38;101706.97;;;4.53;100.00
36092;BME280;22147;52.388;13.390;2023-03-16T08:17:08;101709.63;;;4.75;98.31
36092;BME280;22147;52.388;13.390;2023-03-16T08:19:38;101702.34;;;4.58;98.53
36092;BME280;22147;52.388;13.390;2023-03-16T08:22:08;101704.00;;;5.07;97.32
36092;BME280;22147;52.388;13.390;2023-03-16T08:24:39;101701.38;;;5.27;93.75
36092;BME280;22147;52.388;13.390;2023-03-16T08:27:09;101696.47;;;5.45;94.35
36092;BME280;22147;52.388;13.390;2023-03-16T08:29:40;101702.63;;;5.78;93.47
36092;BME280;22147;52.388;13.390;2023-03-16T08:32:10;101700.25;;;6.22;90.17
36092;BME280;22147;52.388;13.390;2023-03-16T08:34:41;101706.88;;;6.31;92.80
36092;BME280;22147;52.388;13.390;2023-03-16T08:37:11;101714.03;;;6.12;88.63
36092;BME280;22147;52.388;13.390;2023-03-16T08:39:41;101707.16;;;6.30;85.52
36092;BME280;22147;52.388;13.390;2023-03-16T08:42:12;101719.47;;;5.91;84.44
36092;BME280;22147;52.388;13.390;2023-03-16T08:44:46;101722.88;;;6.40;83.21
36092;BME280;22147;52.388;13.390;2023-03-16T08:47:16;101721.50;;;6.42;84.53
36092;BME280;22147;52.388;13.390;2023-03-16T08:49:47;101723.41;;;6.78;83.21
36092;BME280;22147;52.388;13.390;2023-03-16T08:52:17;101732.00;;;6.35;84.22
36092;BME280;22147;52.388;13.390;2023-03-16T08:54:48;101725.91;;;6.48;83.07
36092;BME280;22147;52.388;13.390;2023-03-16T08:57:33;101729.75;;;6.47;82.24
36092;BME280;22147;52.388;13.390;2023-03-16T09:00:04;101729.69;;;7.09;76.44
36092;BME280;22147;52.388;13.390;2023-03-16T09:02:42;101735.19;;;7.19;77.56
36092;BME280;22147;52.388;13.390;2023-03-16T09:05:14;101742.81;;;7.58;75.00
36092;BME280;22147;52.388;13.390;2023-03-16T09:07:44;101738.88;;;7.69;76.12
36092;BME280;22147;52.388;13.390;2023-03-16T09:10:17;101739.06;;;8.28;72.12
36092;BME280;22147;52.388;13.390;2023-03-16T09:12:49;101732.69;;;7.88;74.31
36092;BME280;22147;52.388;13.390;2023-03-16T09:15:21;101744.63;;;7.83;74.19
36092;BME280;22147;52.388;13.390;2023-03-16T09:17:51;101738.31;;;8.17;68.45
36092;BME280;22147;52.388;13.390;2023-03-16T09:20:22;101738.56;;;8.21;69.78
36092;BME280;22147;52.388;13.390;2023-03-16T09:22:58;101737.81;;;8.10;68.51
36092;BME280;22147;52.388;13.390;2023-03-16T09:25:28;101745.00;;;8.50;66.45
36092;BME280;22147;52.388;13.390;2023-03-16T09:27:59;101745.63;;;8.76;64.88
36092;BME280;22147;52.388;13.390;2023-03-16T09:30:29;101749.41;;;8.86;63.11
36092;BME280;22147;52.388;13.390;2023-03-16T09:33:00;101745.00;;;8.50;63.06
36092;BME280;22147;52.388;13.390;2023-03-16T09:35:30;101748.50;;;8.95;60.80
36092;BME280;22147;52.388;13.390;2023-03-16T09:38:03;101753.31;;;8.85;61.22
36092;BME280;22147;52.388;13.390;2023-03-16T09:40:36;101742.88;;;9.01;65.31
36092;BME280;22147;52.388;13.390;2023-03-16T09:46:36;101748.00;;;8.88;64.26
36092;BME280;22147;52.388;13.390;2023-03-16T09:49:18;101748.78;;;9.18;65.61
36092;BME280;22147;52.388;13.390;2023-03-16T10:05:34;101749.03;;;8.98;64.18
36092;BME280;22147;52.388;13.390;2023-03-16T10:08:15;101746.16;;;8.79;60.38
36092;BME280;22147;52.388;13.390;2023-03-16T10:16:53;101747.81;;;9.57;56.58
36092;BME280;22147;52.388;13.390;2023-03-16T10:20:00;101745.75;;;9.87;53.01
36092;BME280;22147;52.388;13.390;2023-03-16T10:22:41;101737.25;;;9.35;56.96
36092;BME280;22147;52.388;13.390;2023-03-16T10:25:47;101738.47;;;9.48;52.58
36092;BME280;22147;52.388;13.390;2023-03-16T10:28:25;101748.94;;;8.79;54.95
36092;BME280;22147;52.388;13.390;2023-03-16T10:30:59;101746.25;;;9.46;54.71
36092;BME280;22147;52.388;13.390;2023-03-16T10:33:33;101738.53;;;10.05;52.33
36092;BME280;22147;52.388;13.390;2023-03-16T10:36:30;101745.28;;;9.79;50.41
36092;BME280;22147;52.388;13.390;2023-03-16T10:39:07;101737.63;;;10.28;50.86
36092;BME280;22147;52.388;13.390;2023-03-16T10:41:43;101745.00;;;9.81;50.54
36092;BME280;22147;52.388;13.390;2023-03-16T10:44:22;101743.19;;;9.90;47.30
36092;BME280;22147;52.388;13.390;2023-03-16T10:47:04;101734.91;;;9.66;50.69
36092;BME280;22147;52.388;13.390;2023-03-16T10:49:40;101735.47;;;9.20;55.47
36092;BME280;22147;52.388;13.390;2023-03-16T10:55:30;101731.03;;;10.05;48.06
36092;BME280;22147;52.388;13.390;2023-03-16T10:58:09;101737.19;;;10.02;47.41
36092;BME280;22147;52.388;13.390;2023-03-16T11:00:42;101728.34;;;10.19;44.16
36092;BME280;22147;52.388;13.390;2023-03-16T11:03:40;101735.47;;;9.87;44.29
36092;BME280;22147;52.388;13.390;2023-03-16T11:06:21;101721.66;;;9.63;49.18
36092;BME280;22147;52.388;13.390;2023-03-16T11:09:29;101728.13;;;9.96;45.40
36092;BME280;22147;52.388;13.390;2023-03-16T11:12:13;101727.75;;;10.03;43.57
36092;BME280;22147;52.388;13.390;2023-03-16T11:14:50;101719.88;;;10.10;43.68
36092;BME280;22147;52.388;13.390;2023-03-16T11:17:35;101722.09;;;9.70;43.84
36092;BME280;22147;52.388;13.390;2023-03-16T11:20:16;101730.84;;;8.86;44.34
36092;BME280;22147;52.388;13.390;2023-03-16T11:22:52;101709.72;;;9.20;48.92
36092;BME280;22147;52.388;13.390;2023-03-16T11:25:42;101715.19;;;9.49;42.59
36092;BME280;22147;52.388;13.390;2023-03-16T11:28:46;101711.25;;;9.74;42.92
36092;BME280;22147;52.388;13.390;2023-03-16T11:31:47;101709.00;;;9.33;46.06
36092;BME280;22147;52.388;13.390;2023-03-16T11:34:30;101715.41;;;9.71;41.99
36092;BME280;22147;52.388;13.390;2023-03-16T11:41:00;101698.09;;;8.93;44.34
36092;BME280;22147;52.388;13.390;2023-03-16T11:49:50;101689.09;;;9.50;45.48
36092;BME280;22147;52.388;13.390;2023-03-16T11:53:05;101684.06;;;9.52;49.13
36092;BME280;22147;52.388;13.390;2023-03-16T11:59:36;101679.13;;;9.49;45.12
36092;BME280;22147;52.388;13.390;2023-03-16T12:05:31;101674.72;;;9.67;43.23
36092;BME280;22147;52.388;13.390;2023-03-16T12:18:43;101661.19;;;9.84;44.73
36092;BME280;22147;52.388;13.390;2023-03-16T12:24:02;101650.53;;;10.24;42.30
36092;BME280;22147;52.388;13.390;2023-03-16T12:26:41;101645.41;;;10.50;38.78
36092;BME280;22147;52.388;13.390;2023-03-16T12:33:29;101646.81;;;10.15;36.76
36092;BME280;22147;52.388;13.390;2023-03-16T12:41:55;101624.41;;;9.92;37.69
36092;BME280;22147;52.388;13.390;2023-03-16T12:45:00;101631.53;;;9.79;39.17
36092;BME280;22147;52.388;13.390;2023-03-16T12:50:57;101618.84;;;10.44;39.12
36092;BME280;22147;52.388;13.390;2023-03-16T12:53:54;101616.16;;;9.87;37.47
36092;BME280;22147;52.388;13.390;2023-03-16T12:56:34;101606.06;;;10.10;41.91
36092;BME280;22147;52.388;13.390;2023-03-16T12:59:21;101601.22;;;10.35;40.38
36092;BME280;22147;52.388;13.390;2023-03-16T13:01:57;101603.94;;;10.54;37.79
36092;BME280;22147;52.388;13.390;2023-03-16T13:04:45;101606.00;;;10.62;38.36
36092;BME280;22147;52.388;13.390;2023-03-16T13:07:27;101596.00;;;10.47;38.43
36092;BME280;22147;52.388;13.390;2023-03-16T13:10:09;101591.69;;;10.55;37.66
36092;BME280;22147;52.388;13.390;2023-03-16T13:12:46;101584.28;;;10.50;35.13
36092;BME280;22147;52.388;13.390;2023-03-16T13:21:19;101596.53;;;11.18;33.29
36092;BME280;22147;52.388;13.390;2023-03-16T13:24:11;101599.47;;;11.36;31.88
36092;BME280;22147;52.388;13.390;2023-03-16T13:26:57;101593.75;;;11.05;31.01
36092;BME280;22147;52.388;13.390;2023-03-16T13:29:33;101590.78;;;10.59;30.63
36092;BME280;22147;52.388;13.390;2023-03-16T13:32:18;101593.22;;;10.33;33.99
36092;BME280;22147;52.388;13.390;2023-03-16T13:34:52;101593.66;;;10.68;36.77
36092;BME280;22147;52.388;13.390;2023-03-16T13:37:29;101600.34;;;11.09;32.76
36092;BME280;22147;52.388;13.390;2023-03-16T13:40:02;101593.25;;;11.16;33.37
36092;BME280;22147;52.388;13.390;2023-03-16T13:42:33;101605.34;;;11.34;34.13
36092;BME280;22147;52.388;13.390;2023-03-16T13:45:17;101598.03;;;11.38;35.41
36092;BME280;22147;52.388;13.390;2023-03-16T13:47:50;101589.25;;;10.95;34.25
36092;BME280;22147;52.388;13.390;2023-03-16T13:50:20;101592.81;;;11.23;33.13
36092;BME280;22147;52.388;13.390;2023-03-16T13:53:10;101580.84;;;11.73;33.26
36092;BME280;22147;52.388;13.390;2023-03-16T13:55:48;101574.72;;;11.48;32.72
36092;BME280;22147;52.388;13.390;2023-03-16T13:58:35;101568.06;;;11.35;32.85
36092;BME280;22147;52.388;13.390;2023-03-16T14:01:31;101567.06;;;11.17;32.23
36092;BME280;22147;52.388;13.390;2023-03-16T14:04:09;101566.59;;;11.52;32.34
36092;BME280;22147;52.388;13.390;2023-03-16T14:06:56;101559.63;;;11.63;31.59
36092;BME280;22147;52.388;13.390;2023-03-16T14:09:33;101552.09;;;11.64;32.51
36092;BME280;22147;52.388;13.390;2023-03-16T14:12:04;101542.53;;;11.92;30.25
36092;BME280;22147;52.388;13.390;2023-03-16T14:14:39;101556.50;;;12.01;32.75
36092;BME280;22147;52.388;13.390;2023-03-16T14:17:13;101556.19;;;12.02;30.37
36092;BME280;22147;52.388;13.390;2023-03-16T14:19:58;101554.22;;;12.03;29.13
36092;BME280;22147;52.388;13.390;2023-03-16T14:22:36;101558.25;;;11.74;29.22
36092;BME280;22147;52.388;13.390;2023-03-16T14:25:18;101551.25;;;11.77;28.54
36092;BME280;22147;52.388;13.390;2023-03-16T14:28:05;101547.31;;;11.78;28.87